createdAt,value
2023-05-11T00:02:08.664Z,100247.42
2023-05-11T00:04:37.118Z,100245.59
2023-05-11T00:07:05.634Z,100246.50
2023-05-11T00:09:34.803Z,100243.13
2023-05-11T00:12:03.202Z,100247.41
2023-05-11T00:14:32.164Z,100248.70
2023-05-11T00:17:00.570Z,100250.89
2023-05-11T00:19:31.461Z,100255.26
2023-05-11T00:21:59.926Z,100254.15
2023-05-11T00:24:28.304Z,100255.77
2023-05-11T00:26:56.597Z,100252.16
2023-05-11T00:29:25.659Z,100249.73
2023-05-11T00:31:54.043Z,100253.17
2023-05-11T00:34:22.627Z,100251.63
2023-05-11T00:36:50.970Z,100252.44
2023-05-11T00:39:19.423Z,100251.02
2023-05-11T00:41:47.855Z,100252.59
2023-05-11T00:44:16.279Z,100251.54
2023-05-11T00:46:44.856Z,100254.77
2023-05-11T00:49:17.210Z,100253.80
2023-05-11T00:51:45.741Z,100252.44
2023-05-11T00:54:15.819Z,100252.59
2023-05-11T00:56:44.794Z,100255.33
2023-05-11T00:59:14.093Z,100255.59
2023-05-11T01:01:42.690Z,100254.97
2023-05-11T01:04:11.406Z,100256.42
2023-05-11T01:06:58.576Z,100255.93
2023-05-11T01:10:31.425Z,100256.75
2023-05-11T01:13:17.392Z,100254.09
2023-05-11T01:15:56.282Z,100255.69
2023-05-11T01:18:51.364Z,100255.59
2023-05-11T01:21:19.829Z,100256.71
2023-05-11T01:24:37.072Z,100254.88
2023-05-11T01:27:56.345Z,100250.38
2023-05-11T01:31:03.372Z,100255.80
2023-05-11T01:33:35.304Z,100256.91
2023-05-11T01:36:08.948Z,100255.15
2023-05-11T01:38:43.305Z,100253.90
2023-05-11T01:41:22.468Z,100255.05
2023-05-11T01:43:58.336Z,100254.54
2023-05-11T01:46:30.436Z,100254.90
2023-05-11T01:49:00.767Z,100257.19
2023-05-11T01:51:36.042Z,100259.32
2023-05-11T01:54:07.974Z,100260.80
2023-05-11T01:56:38.517Z,100264.86
2023-05-11T01:59:07.237Z,100267.48
2023-05-11T02:01:36.623Z,100269.23
2023-05-11T02:04:07.500Z,100268.95
2023-05-11T02:06:38.255Z,100269.78
2023-05-11T02:09:10.102Z,100270.77
2023-05-11T02:11:42.809Z,100270.38
2023-05-11T02:14:12.114Z,100272.01
2023-05-11T02:16:41.275Z,100271.94
2023-05-11T02:19:11.724Z,100272.91
2023-05-11T02:21:43.830Z,100274.21
2023-05-11T02:24:12.648Z,100275.46
2023-05-11T02:26:41.059Z,100275.37
2023-05-11T02:29:09.519Z,100276.83
2023-05-11T02:31:44.768Z,100279.55
2023-05-11T02:34:41.419Z,100278.41
2023-05-11T02:37:18.689Z,100277.14
2023-05-11T02:39:56.165Z,100275.17
2023-05-11T02:42:27.581Z,100275.61
2023-05-11T02:45:07.605Z,100275.63
2023-05-11T02:47:54.086Z,100272.58
2023-05-11T02:50:25.741Z,100274.90
2023-05-11T02:52:59.589Z,100275.66
2023-05-11T02:55:29.450Z,100277.58
2023-05-11T02:57:58.503Z,100276.14
2023-05-11T03:00:27.089Z,100276.43
2023-05-11T03:02:55.649Z,100275.92
2023-05-11T03:05:25.806Z,100275.98
2023-05-11T03:07:59.700Z,100275.09
2023-05-11T03:10:29.637Z,100273.27
2023-05-11T03:12:59.315Z,100279.91
2023-05-11T03:15:28.408Z,100278.48
2023-05-11T03:17:59.390Z,100279.50
2023-05-11T03:20:28.272Z,100279.52
2023-05-11T03:22:57.705Z,100279.27
2023-05-11T03:25:27.157Z,100281.88
2023-05-11T03:27:57.546Z,100281.46
2023-05-11T03:30:28.296Z,100280.88
2023-05-11T03:32:57.396Z,100282.04
2023-05-11T03:35:31.122Z,100286.59
2023-05-11T03:38:00.549Z,100284.02
2023-05-11T03:40:31.580Z,100282.95
2023-05-11T03:43:03.221Z,100283.77
2023-05-11T03:45:33.091Z,100284.61
2023-05-11T03:48:03.872Z,100283.95
2023-05-11T03:50:33.993Z,100281.51
2023-05-11T03:53:03.053Z,100279.73
2023-05-11T03:55:32.521Z,100281.55
2023-05-11T03:58:03.009Z,100281.84
2023-05-11T04:00:32.775Z,100283.20
2023-05-11T04:03:06.569Z,100285.60
2023-05-11T04:05:35.664Z,100284.77
2023-05-11T04:08:05.504Z,100283.88
2023-05-11T04:10:34.071Z,100285.98
2023-05-11T04:13:03.020Z,100286.29
2023-05-11T04:15:31.518Z,100290.61
2023-05-11T04:18:00.052Z,100285.98
2023-05-11T04:20:28.611Z,100287.11
2023-05-11T04:22:57.097Z,100288.77
2023-05-11T04:25:26.112Z,100291.62
2023-05-11T04:27:54.565Z,100288.21
2023-05-11T04:30:23.665Z,100286.40
2023-05-11T04:32:52.076Z,100290.66
2023-05-11T04:35:21.973Z,100288.98
2023-05-11T04:37:52.010Z,100294.25
2023-05-11T04:40:21.228Z,100292.92
2023-05-11T04:42:50.785Z,100297.42
2023-05-11T04:45:20.021Z,100295.16
2023-05-11T04:47:48.446Z,100295.77
2023-05-11T04:50:17.472Z,100296.21
2023-05-11T04:52:46.864Z,100300.88
2023-05-11T04:55:16.230Z,100304.83
2023-05-11T04:57:44.654Z,100303.83
2023-05-11T05:00:13.509Z,100295.54
2023-05-11T05:02:42.063Z,100298.54
2023-05-11T05:05:10.748Z,100300.52
2023-05-11T05:07:39.086Z,100304.27
2023-05-11T05:10:09.151Z,100296.92
2023-05-11T05:12:38.129Z,100302.41
2023-05-11T05:15:07.612Z,100307.23
2023-05-11T05:17:36.255Z,100305.86
2023-05-11T05:21:17.997Z,100313.80
2023-05-11T05:23:46.573Z,100309.83
2023-05-11T05:26:15.250Z,100303.67
2023-05-11T05:28:43.958Z,100307.08
2023-05-11T05:31:12.409Z,100304.61
2023-05-11T05:33:40.853Z,100307.89
2023-05-11T05:36:09.212Z,100314.66
2023-05-11T05:38:37.577Z,100320.04
2023-05-11T05:44:11.869Z,100313.38
2023-05-11T05:46:40.449Z,100324.39
2023-05-11T05:49:08.915Z,100330.21
2023-05-11T05:51:37.347Z,100326.46
2023-05-11T05:54:05.917Z,100330.05
2023-05-11T05:56:35.213Z,100330.27
2023-05-11T05:59:03.572Z,100327.20
2023-05-11T06:01:32.050Z,100323.52
2023-05-11T06:04:00.711Z,100329.17
2023-05-11T06:06:29.410Z,100329.30
2023-05-11T06:08:57.701Z,100331.55
2023-05-11T06:11:26.347Z,100327.09
2023-05-11T06:13:54.842Z,100326.66
2023-05-11T06:16:25.334Z,100327.36
2023-05-11T06:18:53.868Z,100326.67
2023-05-11T06:21:22.670Z,100329.20
2023-05-11T06:23:51.539Z,100328.87
2023-05-11T06:26:22.361Z,100335.92
2023-05-11T06:28:57.043Z,100333.08
2023-05-11T06:31:25.701Z,100328.81
2023-05-11T06:33:56.697Z,100330.57
2023-05-11T06:36:25.702Z,100335.22
2023-05-11T06:38:54.246Z,100335.95
2023-05-11T06:41:22.768Z,100327.51
2023-05-11T06:43:51.259Z,100333.16
2023-05-11T06:46:20.202Z,100329.23
2023-05-11T06:48:56.186Z,100333.83
2023-05-11T06:51:24.574Z,100330.16
2023-05-11T06:53:53.007Z,100329.69
2023-05-11T06:56:21.913Z,100328.15
2023-05-11T06:58:50.292Z,100329.05
2023-05-11T07:01:18.645Z,100333.00
2023-05-11T07:03:49.122Z,100330.88
2023-05-11T07:06:17.521Z,100335.17
2023-05-11T07:20:52.753Z,100328.73
2023-05-11T07:23:21.239Z,100324.18
2023-05-11T07:25:49.809Z,100322.70
2023-05-11T07:28:18.104Z,100325.81
2023-05-11T07:30:47.429Z,100328.11
2023-05-11T07:33:16.819Z,100328.27
2023-05-11T07:35:45.874Z,100327.02
2023-05-11T07:38:14.261Z,100327.04
2023-05-11T07:40:42.808Z,100327.77
2023-05-11T07:43:11.175Z,100332.94
2023-05-11T07:45:40.436Z,100332.52
2023-05-11T07:48:09.169Z,100330.95
2023-05-11T07:50:38.010Z,100331.56
2023-05-11T07:53:06.339Z,100329.88
2023-05-11T07:55:34.813Z,100336.13
2023-05-11T07:58:03.280Z,100331.70
2023-05-11T08:00:31.718Z,100330.55
2023-05-11T08:03:02.507Z,100333.09
2023-05-11T08:05:33.454Z,100330.45
2023-05-11T08:08:01.877Z,100329.34
2023-05-11T08:10:31.607Z,100331.02
2023-05-11T08:13:00.440Z,100332.64
2023-05-11T08:15:29.369Z,100335.55
2023-05-11T08:18:01.589Z,100332.86
2023-05-11T08:20:30.733Z,100332.65
2023-05-11T08:23:17.276Z,100329.00
2023-05-11T08:25:54.516Z,100328.50
2023-05-11T08:28:23.433Z,100328.25
2023-05-11T08:30:59.290Z,100334.09
2023-05-11T08:35:59.685Z,100334.95
2023-05-11T08:38:28.000Z,100332.71
2023-05-11T08:40:56.350Z,100334.17
2023-05-11T08:43:26.924Z,100332.09
2023-05-11T08:46:01.268Z,100332.20
2023-05-11T08:48:31.031Z,100329.27
2023-05-11T08:51:00.243Z,100329.67
2023-05-11T08:53:28.969Z,100333.77
2023-05-11T08:56:01.737Z,100332.45
2023-05-11T08:58:32.268Z,100328.14
2023-05-11T09:01:00.758Z,100333.66
2023-05-11T09:03:30.716Z,100336.38
2023-05-11T09:06:01.059Z,100333.86
2023-05-11T09:08:31.824Z,100332.58
2023-05-11T09:11:01.010Z,100327.89
2023-05-11T09:13:31.044Z,100324.73
2023-05-11T09:15:59.553Z,100323.70
2023-05-11T09:18:27.997Z,100323.27
2023-05-11T09:20:56.357Z,100325.37
2023-05-11T09:23:27.462Z,100323.29
2023-05-11T09:25:56.015Z,100324.92
2023-05-11T09:28:26.001Z,100322.98
2023-05-11T09:30:54.833Z,100321.19
2023-05-11T09:33:30.744Z,100319.79
2023-05-11T09:35:59.679Z,100319.38
2023-05-11T09:38:28.170Z,100323.11
2023-05-11T09:41:01.015Z,100322.15
2023-05-11T09:43:31.222Z,100323.33
2023-05-11T09:46:08.081Z,100319.58
2023-05-11T09:48:36.555Z,100322.40
2023-05-11T09:51:08.217Z,100320.04
2023-05-11T09:53:46.265Z,100321.02
2023-05-11T09:56:15.909Z,100321.13
2023-05-11T09:58:54.904Z,100321.67
2023-05-11T10:01:34.838Z,100318.33
2023-05-11T10:04:22.118Z,100316.42
2023-05-11T10:06:53.686Z,100312.02
2023-05-11T10:09:25.704Z,100305.36
2023-05-11T10:11:56.568Z,100306.23
2023-05-11T10:14:27.570Z,100305.52
2023-05-11T10:16:58.303Z,100304.67
2023-05-11T10:19:27.366Z,100303.50
2023-05-11T10:21:57.369Z,100303.98
2023-05-11T10:24:27.325Z,100299.20
2023-05-11T10:26:57.458Z,100298.91
2023-05-11T10:29:26.672Z,100294.90
2023-05-11T10:31:58.464Z,100293.27
2023-05-11T10:34:29.334Z,100289.59
2023-05-11T10:37:02.770Z,100290.10
2023-05-11T10:39:31.920Z,100290.05
2023-05-11T10:42:28.355Z,100284.80
2023-05-11T10:45:37.543Z,100283.97
2023-05-11T10:48:40.311Z,100280.79
2023-05-11T10:51:52.847Z,100278.06
2023-05-11T11:01:21.253Z,100273.45
2023-05-11T11:03:59.267Z,100268.21
2023-05-11T11:06:29.737Z,100270.43
2023-05-11T11:09:08.924Z,100268.50
2023-05-11T11:11:41.025Z,100263.80
2023-05-11T11:14:10.559Z,100258.90
2023-05-11T11:16:40.385Z,100259.02
2023-05-11T11:19:30.777Z,100264.47
2023-05-11T11:22:01.504Z,100265.73
2023-05-11T11:24:39.241Z,100263.27
2023-05-11T11:27:09.630Z,100263.53
2023-05-11T11:29:40.377Z,100263.23
2023-05-11T11:32:24.303Z,100262.22
2023-05-11T11:34:52.939Z,100265.42
2023-05-11T11:37:22.411Z,100266.55
2023-05-11T11:39:55.825Z,100269.67
2023-05-11T11:42:38.981Z,100265.27
2023-05-11T11:46:09.409Z,100262.81
2023-05-11T11:48:41.856Z,100263.23
2023-05-11T11:51:14.432Z,100263.78
2023-05-11T11:53:44.691Z,100260.93
2023-05-11T11:56:15.999Z,100258.64
2023-05-11T11:58:45.285Z,100256.04
2023-05-11T12:01:40.089Z,100258.64
2023-05-11T12:05:00.246Z,100259.56
2023-05-11T12:07:55.172Z,100258.05
2023-05-11T12:10:24.443Z,100259.95
2023-05-11T12:12:59.919Z,100261.04
2023-05-11T12:15:34.686Z,100257.34
2023-05-11T12:18:03.380Z,100255.10
2023-05-11T12:20:32.808Z,100255.07
2023-05-11T12:23:01.806Z,100258.88
2023-05-11T12:25:30.215Z,100259.52
2023-05-11T12:28:00.564Z,100252.72
2023-05-11T12:30:32.156Z,100248.41
2023-05-11T12:33:04.358Z,100250.04
2023-05-11T12:35:34.441Z,100250.25
2023-05-11T12:38:02.917Z,100247.77
2023-05-11T12:40:31.607Z,100245.80
2023-05-11T12:43:00.573Z,100246.48
2023-05-11T12:45:30.062Z,100247.27
2023-05-11T12:47:59.293Z,100244.44
2023-05-11T12:50:27.745Z,100243.48
2023-05-11T12:53:16.708Z,100240.48
2023-05-11T12:55:46.451Z,100238.06
2023-05-11T12:58:16.661Z,100231.79
2023-05-11T13:00:59.715Z,100231.02
2023-05-11T13:03:35.528Z,100229.83
2023-05-11T13:06:13.491Z,100226.36
2023-05-11T13:08:46.811Z,100226.09
2023-05-11T13:11:27.040Z,100222.79
2023-05-11T13:13:57.214Z,100220.52
2023-05-11T13:16:31.121Z,100219.80
2023-05-11T13:19:05.966Z,100218.02
2023-05-11T13:21:34.506Z,100218.96
2023-05-11T13:24:04.174Z,100218.48
2023-05-11T13:26:33.081Z,100219.13
2023-05-11T13:29:10.935Z,100215.09
2023-05-11T13:31:49.136Z,100214.41
2023-05-11T13:34:19.452Z,100205.21
2023-05-11T13:36:48.365Z,100200.36
2023-05-11T13:39:17.313Z,100198.15
2023-05-11T13:41:46.390Z,100195.91
2023-05-11T13:44:14.914Z,100196.65
2023-05-11T13:46:43.553Z,100197.05
2023-05-11T13:49:12.127Z,100192.95
2023-05-11T13:51:40.719Z,100201.90
2023-05-11T13:54:09.216Z,100200.38
2023-05-11T13:56:37.581Z,100198.81
2023-05-11T13:59:05.954Z,100203.27
2023-05-11T14:01:34.394Z,100201.23
2023-05-11T14:04:02.866Z,100199.36
2023-05-11T14:06:34.969Z,100196.11
2023-05-11T14:09:03.550Z,100196.13
2023-05-11T14:11:32.049Z,100195.84
2023-05-11T14:14:01.001Z,100190.87
2023-05-11T14:16:29.714Z,100188.91
2023-05-11T14:18:58.109Z,100189.73
2023-05-11T14:21:26.636Z,100187.10
2023-05-11T14:24:10.031Z,100187.25
2023-05-11T14:26:41.590Z,100182.84
2023-05-11T14:29:10.042Z,100179.10
2023-05-11T14:31:39.147Z,100179.51
2023-05-11T14:34:07.542Z,100178.16
2023-05-11T14:36:36.783Z,100172.28
2023-05-11T14:39:05.152Z,100172.23
2023-05-11T14:41:33.588Z,100170.23
2023-05-11T14:44:02.059Z,100170.33
2023-05-11T14:46:30.504Z,100170.02
2023-05-11T14:48:58.878Z,100170.95
2023-05-11T14:51:27.322Z,100168.23
2023-05-11T14:53:55.832Z,100163.84
2023-05-11T14:56:24.347Z,100166.06
2023-05-11T14:58:52.753Z,100167.18
2023-05-11T15:01:21.603Z,100166.45
2023-05-11T15:03:50.103Z,100167.98
2023-05-11T15:06:22.351Z,100167.10
2023-05-11T15:08:50.986Z,100163.17
2023-05-11T15:11:19.448Z,100160.90
2023-05-11T15:13:47.902Z,100158.89
2023-05-11T15:16:16.399Z,100164.33
2023-05-11T15:18:44.971Z,100165.98
2023-05-11T15:21:13.471Z,100167.09
2023-05-11T15:23:42.141Z,100167.95
2023-05-11T15:26:10.668Z,100164.91
2023-05-11T15:28:39.076Z,100166.86
2023-05-11T15:31:07.438Z,100169.63
2023-05-11T15:33:36.097Z,100170.30
2023-05-11T15:36:13.657Z,100167.56
2023-05-11T15:38:43.677Z,100166.88
2023-05-11T15:41:12.290Z,100163.17
2023-05-11T15:43:40.677Z,100163.48
2023-05-11T15:46:09.209Z,100164.09
2023-05-11T15:48:37.658Z,100170.09
2023-05-11T15:51:06.096Z,100165.86
2023-05-11T15:53:36.177Z,100169.52
2023-05-11T15:56:04.978Z,100166.02
2023-05-11T15:58:33.370Z,100164.67
2023-05-11T16:01:02.020Z,100166.42
2023-05-11T16:03:30.811Z,100164.10
2023-05-11T16:05:59.526Z,100163.77
2023-05-11T16:08:27.827Z,100162.53
2023-05-11T16:10:56.220Z,100163.02
2023-05-11T16:13:24.603Z,100163.20
2023-05-11T16:15:53.997Z,100164.86
2023-05-11T16:18:22.575Z,100163.17
2023-05-11T16:20:52.571Z,100163.66
2023-05-11T16:23:21.392Z,100161.62
2023-05-11T16:25:50.066Z,100159.32
2023-05-11T16:28:18.478Z,100161.23
2023-05-11T16:30:47.750Z,100156.58
2023-05-11T16:33:16.885Z,100158.48
2023-05-11T16:35:45.435Z,100159.73
2023-05-11T16:38:18.653Z,100159.81
2023-05-11T16:40:49.973Z,100161.71
2023-05-11T16:43:18.346Z,100155.92
2023-05-11T16:45:46.849Z,100154.40
2023-05-11T16:48:15.849Z,100154.84
2023-05-11T16:50:45.095Z,100152.09
2023-05-11T16:53:13.721Z,100149.34
2023-05-11T16:55:42.137Z,100149.92
2023-05-11T17:04:28.894Z,100151.25
2023-05-11T17:06:57.481Z,100154.27
2023-05-11T17:09:26.259Z,100151.16
2023-05-11T17:11:55.394Z,100151.50
2023-05-11T17:14:23.769Z,100155.36
2023-05-11T17:16:56.018Z,100154.22
2023-05-11T17:19:25.088Z,100156.56
2023-05-11T17:21:58.762Z,100160.80
2023-05-11T17:24:28.534Z,100160.55
2023-05-11T17:26:57.137Z,100162.25
2023-05-11T17:29:27.817Z,100161.85
2023-05-11T17:31:57.703Z,100165.20
2023-05-11T17:34:31.253Z,100162.55
2023-05-11T17:36:59.787Z,100163.27
2023-05-11T17:39:28.274Z,100162.87
2023-05-11T17:41:59.431Z,100168.17
2023-05-11T17:44:28.537Z,100168.78
2023-05-11T17:46:58.106Z,100169.73
2023-05-11T17:49:28.928Z,100170.42
2023-05-11T17:52:01.759Z,100171.08
2023-05-11T17:54:32.168Z,100173.93
2023-05-11T17:57:09.819Z,100174.86
2023-05-11T17:59:38.384Z,100176.13
2023-05-11T18:02:08.973Z,100177.58
2023-05-11T18:04:38.340Z,100178.89
2023-05-11T18:07:07.414Z,100185.55
2023-05-11T18:09:36.131Z,100182.30
2023-05-11T18:12:05.403Z,100187.59
2023-05-11T18:14:33.931Z,100189.94
2023-05-11T18:17:02.501Z,100192.30
2023-05-11T18:19:31.332Z,100198.36
2023-05-11T18:22:00.582Z,100197.78
2023-05-11T18:24:29.017Z,100201.81
2023-05-11T18:26:57.489Z,100197.73
2023-05-11T18:29:25.939Z,100200.45
2023-05-11T18:31:54.382Z,100202.02
2023-05-11T18:34:23.137Z,100203.65
2023-05-11T18:36:51.486Z,100208.74
2023-05-11T18:39:20.425Z,100216.75
2023-05-11T18:41:48.882Z,100215.21
2023-05-11T18:44:18.604Z,100220.98
2023-05-11T18:46:47.156Z,100223.04
2023-05-11T18:49:15.528Z,100225.42
2023-05-11T18:51:44.042Z,100229.45
2023-05-11T18:54:12.564Z,100232.88
2023-05-11T18:56:41.121Z,100236.86
2023-05-11T18:59:09.427Z,100238.82
2023-05-11T19:01:47.131Z,100238.30
2023-05-11T19:04:19.711Z,100243.52
2023-05-11T19:06:48.972Z,100248.77
2023-05-11T19:09:17.740Z,100257.84
2023-05-11T19:11:46.258Z,100258.77
2023-05-11T19:14:15.889Z,100261.40
2023-05-11T19:16:44.421Z,100262.72
2023-05-11T19:19:12.940Z,100263.96
2023-05-11T19:21:43.777Z,100263.66
2023-05-11T19:24:12.240Z,100264.98
2023-05-11T19:26:40.993Z,100264.39
2023-05-11T19:29:10.330Z,100269.72
2023-05-11T19:31:38.930Z,100271.73
2023-05-11T19:34:07.344Z,100270.02
2023-05-11T19:36:35.810Z,100271.46
2023-05-11T19:39:04.484Z,100277.23
2023-05-11T19:41:33.216Z,100276.51
2023-05-11T19:44:02.845Z,100277.00
2023-05-11T19:46:31.381Z,100278.11
2023-05-11T19:48:59.789Z,100277.84
2023-05-11T19:51:28.233Z,100281.09
2023-05-11T19:53:57.138Z,100281.48
2023-05-11T19:56:25.529Z,100281.27
2023-05-11T19:58:54.002Z,100284.64
2023-05-11T20:01:22.594Z,100282.17
2023-05-11T20:03:52.299Z,100286.55
2023-05-11T20:06:20.987Z,100282.96
2023-05-11T20:08:51.605Z,100280.52
2023-05-11T20:11:21.661Z,100287.45
2023-05-11T20:13:50.072Z,100287.45
2023-05-11T20:16:18.811Z,100291.38
2023-05-11T20:18:47.666Z,100294.80
2023-05-11T20:21:16.769Z,100295.59
2023-05-11T20:23:45.244Z,100296.30
2023-05-11T20:26:13.632Z,100297.16
2023-05-11T20:28:41.923Z,100300.21
2023-05-11T20:31:11.016Z,100300.82
2023-05-11T20:36:10.925Z,100301.17
2023-05-11T20:38:39.341Z,100308.17
2023-05-11T20:41:07.909Z,100308.61
2023-05-11T20:43:36.238Z,100310.46
2023-05-11T20:46:05.517Z,100307.86
2023-05-11T20:48:40.537Z,100309.48
2023-05-11T20:51:10.452Z,100308.35
2023-05-11T20:53:38.899Z,100308.28
2023-05-11T20:56:10.073Z,100311.86
2023-05-11T20:58:39.270Z,100310.60
2023-05-11T21:01:08.025Z,100310.83
2023-05-11T21:03:36.412Z,100312.21
2023-05-11T21:06:06.088Z,100311.60
2023-05-11T21:08:35.169Z,100310.35
2023-05-11T21:11:03.740Z,100314.92
2023-05-11T21:13:33.202Z,100311.59
2023-05-11T21:16:01.776Z,100308.17
2023-05-11T21:18:32.149Z,100308.77
2023-05-11T21:21:04.626Z,100304.88
2023-05-11T21:23:33.227Z,100308.17
2023-05-11T21:26:03.337Z,100308.50
2023-05-11T21:28:32.723Z,100313.49
2023-05-11T21:31:01.190Z,100316.77
2023-05-11T21:33:29.586Z,100318.48
2023-05-11T21:35:58.236Z,100314.19
2023-05-11T21:38:26.641Z,100313.90
2023-05-11T21:40:56.535Z,100314.42
2023-05-11T21:43:24.978Z,100314.55
2023-05-11T21:45:53.378Z,100317.58
2023-05-11T21:48:22.284Z,100320.10
2023-05-11T21:50:55.551Z,100315.91
2023-05-11T21:53:24.190Z,100316.51
2023-05-11T21:55:52.636Z,100314.29
2023-05-11T21:58:21.234Z,100315.97
2023-05-11T22:00:50.191Z,100317.71
2023-05-11T22:03:19.452Z,100317.26
2023-05-11T22:05:48.041Z,100313.86
2023-05-11T22:08:16.445Z,100316.48
2023-05-11T22:10:45.080Z,100314.91
2023-05-11T22:13:13.510Z,100318.65
2023-05-11T22:15:41.992Z,100315.92
2023-05-11T22:18:10.553Z,100317.98
2023-05-11T22:20:39.037Z,100320.79
2023-05-11T22:23:07.444Z,100324.16
2023-05-11T22:25:35.936Z,100326.91
2023-05-11T22:28:05.588Z,100322.99
2023-05-11T22:30:34.012Z,100323.09
2023-05-11T22:33:02.359Z,100324.21
2023-05-11T22:35:31.034Z,100321.54
2023-05-11T22:38:01.759Z,100321.33
2023-05-11T22:40:30.345Z,100329.29
2023-05-11T22:42:58.754Z,100331.31
2023-05-11T22:45:51.414Z,100326.67
2023-05-11T22:48:19.816Z,100332.61
2023-05-11T22:50:48.232Z,100333.70
2023-05-11T22:53:19.067Z,100331.76
2023-05-11T22:55:47.813Z,100330.45
2023-05-11T22:58:16.194Z,100331.20
2023-05-11T23:00:45.966Z,100330.79
2023-05-11T23:03:14.349Z,100329.25
2023-05-11T23:05:43.312Z,100331.61
2023-05-11T23:08:11.794Z,100331.56
2023-05-11T23:10:40.210Z,100331.81
2023-05-11T23:13:11.360Z,100331.79
2023-05-11T23:15:39.680Z,100331.98
2023-05-11T23:18:08.421Z,100333.70
2023-05-11T23:20:37.081Z,100327.93
2023-05-11T23:23:05.537Z,100328.98
2023-05-11T23:25:34.062Z,100324.66
2023-05-11T23:28:02.483Z,100326.48
2023-05-11T23:30:30.851Z,100326.36
2023-05-11T23:32:59.452Z,100324.84
2023-05-11T23:35:27.825Z,100323.11
2023-05-11T23:37:59.284Z,100321.88
2023-05-11T23:40:28.502Z,100325.57
2023-05-11T23:42:57.090Z,100322.56
2023-05-11T23:45:27.719Z,100323.55
2023-05-11T23:47:56.357Z,100323.83
2023-05-11T23:50:24.859Z,100325.77
2023-05-11T23:52:53.167Z,100325.85
2023-05-11T23:55:24.266Z,100322.91
2023-05-11T23:57:52.712Z,100321.40
